sensor_id;sensor_type;location;lat;lon;timestamp;P1;durP1;ratioP1;P2;durP2;ratioP2
66626;SDS011;53498;50.422;14.912;2022-11-23T00:03:45;41.63;;;21.65;;
66626;SDS011;53498;50.422;14.912;2022-11-23T00:06:12;34.40;;;18.95;;
66626;SDS011;53498;50.422;14.912;2022-11-23T00:08:38;32.47;;;19.52;;
66626;SDS011;53498;50.422;14.912;2022-11-23T00:11:04;34.65;;;19.33;;
66626;SDS011;53498;50.422;14.912;2022-11-23T00:13:30;37.65;;;22.10;;
66626;SDS011;53498;50.422;14.912;2022-11-23T00:15:55;35.50;;;20.58;;
66626;SDS011;53498;50.422;14.912;2022-11-23T00:18:21;38.65;;;21.90;;
66626;SDS011;53498;50.422;14.912;2022-11-23T00:20:46;38.65;;;21.40;;
66626;SDS011;53498;50.422;14.912;2022-11-23T00:23:12;36.70;;;22.02;;
66626;SDS011;53498;50.422;14.912;2022-11-23T00:25:38;37.53;;;21.65;;
66626;SDS011;53498;50.422;14.912;2022-11-23T00:28:03;41.35;;;24.25;;
66626;SDS011;53498;50.422;14.912;2022-11-23T00:30:29;38.53;;;21.50;;
66626;SDS011;53498;50.422;14.912;2022-11-23T00:32:54;37.40;;;21.40;;
66626;SDS011;53498;50.422;14.912;2022-11-23T00:35:20;40.25;;;22.33;;
66626;SDS011;53498;50.422;14.912;2022-11-23T00:37:46;39.65;;;21.92;;
66626;SDS011;53498;50.422;14.912;2022-11-23T00:40:12;37.22;;;21.45;;
66626;SDS011;53498;50.422;14.912;2022-11-23T00:42:38;37.88;;;22.15;;
66626;SDS011;53498;50.422;14.912;2022-11-23T00:45:03;42.80;;;21.77;;
66626;SDS011;53498;50.422;14.912;2022-11-23T00:47:29;44.28;;;23.40;;
66626;SDS011;53498;50.422;14.912;2022-11-23T00:49:55;37.63;;;21.17;;
66626;SDS011;53498;50.422;14.912;2022-11-23T00:52:20;35.70;;;22.15;;
66626;SDS011;53498;50.422;14.912;2022-11-23T00:54:46;35.33;;;20.35;;
66626;SDS011;53498;50.422;14.912;2022-11-23T00:57:11;38.85;;;23.75;;
66626;SDS011;53498;50.422;14.912;2022-11-23T00:59:37;38.53;;;21.48;;
66626;SDS011;53498;50.422;14.912;2022-11-23T01:02:02;40.88;;;21.33;;
66626;SDS011;53498;50.422;14.912;2022-11-23T01:04:28;38.70;;;21.15;;
66626;SDS011;53498;50.422;14.912;2022-11-23T01:06:55;40.58;;;21.77;;
66626;SDS011;53498;50.422;14.912;2022-11-23T01:09:24;39.10;;;21.33;;
66626;SDS011;53498;50.422;14.912;2022-11-23T01:11:54;39.63;;;22.50;;
66626;SDS011;53498;50.422;14.912;2022-11-23T01:14:20;43.30;;;22.83;;
66626;SDS011;53498;50.422;14.912;2022-11-23T01:16:47;43.72;;;24.58;;
66626;SDS011;53498;50.422;14.912;2022-11-23T01:19:13;48.03;;;23.88;;
66626;SDS011;53498;50.422;14.912;2022-11-23T01:21:42;41.67;;;22.65;;
66626;SDS011;53498;50.422;14.912;2022-11-23T01:24:10;40.72;;;23.02;;
66626;SDS011;53498;50.422;14.912;2022-11-23T01:26:37;45.20;;;23.17;;
66626;SDS011;53498;50.422;14.912;2022-11-23T01:29:03;38.17;;;21.73;;
66626;SDS011;53498;50.422;14.912;2022-11-23T01:31:29;36.85;;;19.85;;
66626;SDS011;53498;50.422;14.912;2022-11-23T01:33:55;40.03;;;20.23;;
66626;SDS011;53498;50.422;14.912;2022-11-23T01:36:24;34.35;;;20.70;;
66626;SDS011;53498;50.422;14.912;2022-11-23T01:38:54;43.55;;;25.00;;
66626;SDS011;53498;50.422;14.912;2022-11-23T01:41:21;40.47;;;21.08;;
66626;SDS011;53498;50.422;14.912;2022-11-23T01:43:52;36.92;;;20.15;;
66626;SDS011;53498;50.422;14.912;2022-11-23T01:46:19;34.38;;;22.15;;
66626;SDS011;53498;50.422;14.912;2022-11-23T01:48:46;35.92;;;19.95;;
66626;SDS011;53498;50.422;14.912;2022-11-23T01:51:24;37.28;;;19.90;;
66626;SDS011;53498;50.422;14.912;2022-11-23T01:53:53;37.03;;;21.25;;
66626;SDS011;53498;50.422;14.912;2022-11-23T01:56:25;41.88;;;23.40;;
66626;SDS011;53498;50.422;14.912;2022-11-23T01:58:55;36.05;;;20.02;;
66626;SDS011;53498;50.422;14.912;2022-11-23T02:01:25;35.88;;;21.20;;
66626;SDS011;53498;50.422;14.912;2022-11-23T02:03:50;40.63;;;23.25;;
66626;SDS011;53498;50.422;14.912;2022-11-23T02:06:20;39.40;;;22.30;;
66626;SDS011;53498;50.422;14.912;2022-11-23T02:08:47;35.60;;;20.33;;
66626;SDS011;53498;50.422;14.912;2022-11-23T02:11:14;37.45;;;21.83;;
66626;SDS011;53498;50.422;14.912;2022-11-23T02:13:40;33.33;;;19.55;;
66626;SDS011;53498;50.422;14.912;2022-11-23T02:16:09;40.88;;;21.60;;
66626;SDS011;53498;50.422;14.912;2022-11-23T02:18:35;37.42;;;21.30;;
66626;SDS011;53498;50.422;14.912;2022-11-23T02:21:05;41.45;;;21.45;;
66626;SDS011;53498;50.422;14.912;2022-11-23T02:23:33;34.70;;;19.70;;
66626;SDS011;53498;50.422;14.912;2022-11-23T02:26:22;43.20;;;21.35;;
66626;SDS011;53498;50.422;14.912;2022-11-23T02:28:58;31.33;;;20.02;;
66626;SDS011;53498;50.422;14.912;2022-11-23T02:31:27;39.83;;;21.75;;
66626;SDS011;53498;50.422;14.912;2022-11-23T02:33:52;41.03;;;21.95;;
66626;SDS011;53498;50.422;14.912;2022-11-23T02:36:27;32.67;;;21.10;;
66626;SDS011;53498;50.422;14.912;2022-11-23T02:39:25;35.63;;;19.83;;
66626;SDS011;53498;50.422;14.912;2022-11-23T02:41:54;39.05;;;18.45;;
66626;SDS011;53498;50.422;14.912;2022-11-23T02:47:19;34.00;;;19.20;;
66626;SDS011;53498;50.422;14.912;2022-11-23T02:49:44;34.70;;;21.27;;
66626;SDS011;53498;50.422;14.912;2022-11-23T02:52:12;37.92;;;20.38;;
66626;SDS011;53498;50.422;14.912;2022-11-23T02:54:38;38.08;;;21.85;;
66626;SDS011;53498;50.422;14.912;2022-11-23T02:57:07;32.92;;;19.25;;
66626;SDS011;53498;50.422;14.912;2022-11-23T02:59:32;32.88;;;20.83;;
66626;SDS011;53498;50.422;14.912;2022-11-23T03:01:59;34.15;;;19.73;;
66626;SDS011;53498;50.422;14.912;2022-11-23T03:04:25;31.67;;;16.95;;
66626;SDS011;53498;50.422;14.912;2022-11-23T03:06:51;38.60;;;20.85;;
66626;SDS011;53498;50.422;14.912;2022-11-23T03:09:17;34.38;;;18.33;;
66626;SDS011;53498;50.422;14.912;2022-11-23T03:11:42;35.42;;;20.27;;
66626;SDS011;53498;50.422;14.912;2022-11-23T03:14:08;38.67;;;21.33;;
66626;SDS011;53498;50.422;14.912;2022-11-23T03:16:34;37.13;;;20.48;;
66626;SDS011;53498;50.422;14.912;2022-11-23T03:18:59;32.97;;;18.52;;
66626;SDS011;53498;50.422;14.912;2022-11-23T03:21:25;33.58;;;20.50;;
66626;SDS011;53498;50.422;14.912;2022-11-23T03:23:50;35.20;;;21.92;;
66626;SDS011;53498;50.422;14.912;2022-11-23T03:26:16;35.75;;;19.77;;
66626;SDS011;53498;50.422;14.912;2022-11-23T03:28:42;36.17;;;20.48;;
66626;SDS011;53498;50.422;14.912;2022-11-23T03:31:08;32.83;;;19.98;;
66626;SDS011;53498;50.422;14.912;2022-11-23T03:33:33;32.38;;;18.45;;
66626;SDS011;53498;50.422;14.912;2022-11-23T03:35:59;35.00;;;19.98;;
66626;SDS011;53498;50.422;14.912;2022-11-23T03:38:25;35.17;;;21.08;;
66626;SDS011;53498;50.422;14.912;2022-11-23T03:40:51;37.35;;;20.85;;
66626;SDS011;53498;50.422;14.912;2022-11-23T03:43:16;32.47;;;18.45;;
66626;SDS011;53498;50.422;14.912;2022-11-23T03:45:43;34.55;;;20.65;;
66626;SDS011;53498;50.422;14.912;2022-11-23T03:48:09;31.83;;;17.77;;
66626;SDS011;53498;50.422;14.912;2022-11-23T03:50:35;32.95;;;19.52;;
66626;SDS011;53498;50.422;14.912;2022-11-23T03:53:01;35.60;;;19.20;;
66626;SDS011;53498;50.422;14.912;2022-11-23T03:55:27;38.45;;;21.25;;
66626;SDS011;53498;50.422;14.912;2022-11-23T03:57:52;37.72;;;18.60;;
66626;SDS011;53498;50.422;14.912;2022-11-23T04:00:19;41.97;;;23.77;;
66626;SDS011;53498;50.422;14.912;2022-11-23T04:02:45;41.97;;;20.63;;
66626;SDS011;53498;50.422;14.912;2022-11-23T04:05:11;41.25;;;21.00;;
66626;SDS011;53498;50.422;14.912;2022-11-23T04:07:37;35.85;;;21.08;;
66626;SDS011;53498;50.422;14.912;2022-11-23T04:10:03;32.03;;;19.23;;
66626;SDS011;53498;50.422;14.912;2022-11-23T04:12:29;39.47;;;21.00;;
66626;SDS011;53498;50.422;14.912;2022-11-23T04:14:57;37.45;;;22.40;;
66626;SDS011;53498;50.422;14.912;2022-11-23T04:17:23;37.38;;;22.30;;
66626;SDS011;53498;50.422;14.912;2022-11-23T04:19:48;37.88;;;21.38;;
66626;SDS011;53498;50.422;14.912;2022-11-23T04:22:14;37.60;;;20.52;;
66626;SDS011;53498;50.422;14.912;2022-11-23T04:24:39;39.70;;;20.48;;
66626;SDS011;53498;50.422;14.912;2022-11-23T04:27:05;34.38;;;20.25;;
66626;SDS011;53498;50.422;14.912;2022-11-23T04:29:30;34.45;;;20.17;;
66626;SDS011;53498;50.422;14.912;2022-11-23T04:31:56;41.53;;;21.40;;
66626;SDS011;53498;50.422;14.912;2022-11-23T04:34:21;38.25;;;20.08;;
66626;SDS011;53498;50.422;14.912;2022-11-23T04:36:47;34.17;;;21.80;;
66626;SDS011;53498;50.422;14.912;2022-11-23T04:39:13;34.88;;;19.75;;
66626;SDS011;53498;50.422;14.912;2022-11-23T04:41:38;39.65;;;21.38;;
66626;SDS011;53498;50.422;14.912;2022-11-23T04:44:04;39.65;;;21.58;;
66626;SDS011;53498;50.422;14.912;2022-11-23T04:46:30;37.80;;;20.85;;
66626;SDS011;53498;50.422;14.912;2022-11-23T04:48:56;39.70;;;23.13;;
66626;SDS011;53498;50.422;14.912;2022-11-23T04:51:22;34.47;;;19.38;;
66626;SDS011;53498;50.422;14.912;2022-11-23T04:53:48;35.53;;;18.80;;
66626;SDS011;53498;50.422;14.912;2022-11-23T04:56:14;34.78;;;19.20;;
66626;SDS011;53498;50.422;14.912;2022-11-23T04:58:40;38.15;;;22.23;;
66626;SDS011;53498;50.422;14.912;2022-11-23T05:01:05;36.72;;;20.77;;
66626;SDS011;53498;50.422;14.912;2022-11-23T05:03:31;31.40;;;18.08;;
66626;SDS011;53498;50.422;14.912;2022-11-23T05:06:03;32.83;;;17.38;;
66626;SDS011;53498;50.422;14.912;2022-11-23T05:08:31;30.52;;;18.08;;
66626;SDS011;53498;50.422;14.912;2022-11-23T05:10:57;38.33;;;21.13;;
66626;SDS011;53498;50.422;14.912;2022-11-23T05:13:23;31.88;;;18.73;;
66626;SDS011;53498;50.422;14.912;2022-11-23T05:15:48;40.05;;;19.88;;
66626;SDS011;53498;50.422;14.912;2022-11-23T05:18:14;36.53;;;22.08;;
66626;SDS011;53498;50.422;14.912;2022-11-23T05:20:40;38.78;;;20.45;;
66626;SDS011;53498;50.422;14.912;2022-11-23T05:23:06;33.50;;;18.92;;
66626;SDS011;53498;50.422;14.912;2022-11-23T05:25:32;35.67;;;20.38;;
66626;SDS011;53498;50.422;14.912;2022-11-23T05:28:01;37.75;;;19.48;;
66626;SDS011;53498;50.422;14.912;2022-11-23T05:30:26;30.45;;;17.90;;
66626;SDS011;53498;50.422;14.912;2022-11-23T05:32:52;38.40;;;18.85;;
66626;SDS011;53498;50.422;14.912;2022-11-23T05:35:18;30.73;;;17.80;;
66626;SDS011;53498;50.422;14.912;2022-11-23T05:37:43;33.15;;;18.15;;
66626;SDS011;53498;50.422;14.912;2022-11-23T05:40:09;36.60;;;19.98;;
66626;SDS011;53498;50.422;14.912;2022-11-23T05:42:36;34.13;;;18.25;;
66626;SDS011;53498;50.422;14.912;2022-11-23T05:45:01;31.15;;;19.13;;
66626;SDS011;53498;50.422;14.912;2022-11-23T05:47:30;30.67;;;17.63;;
66626;SDS011;53498;50.422;14.912;2022-11-23T05:49:56;34.63;;;19.33;;
66626;SDS011;53498;50.422;14.912;2022-11-23T05:52:23;37.55;;;19.70;;
66626;SDS011;53498;50.422;14.912;2022-11-23T05:54:49;39.13;;;20.75;;
66626;SDS011;53498;50.422;14.912;2022-11-23T05:57:15;34.65;;;21.02;;
66626;SDS011;53498;50.422;14.912;2022-11-23T05:59:42;33.60;;;19.38;;
66626;SDS011;53498;50.422;14.912;2022-11-23T06:02:08;38.72;;;20.25;;
66626;SDS011;53498;50.422;14.912;2022-11-23T06:04:33;37.63;;;21.13;;
66626;SDS011;53498;50.422;14.912;2022-11-23T06:07:00;35.38;;;19.25;;
66626;SDS011;53498;50.422;14.912;2022-11-23T06:09:26;37.80;;;20.58;;
66626;SDS011;53498;50.422;14.912;2022-11-23T06:11:52;39.15;;;21.38;;
66626;SDS011;53498;50.422;14.912;2022-11-23T06:14:18;37.92;;;22.50;;
66626;SDS011;53498;50.422;14.912;2022-11-23T06:16:43;36.38;;;22.35;;
66626;SDS011;53498;50.422;14.912;2022-11-23T06:19:09;38.08;;;22.05;;
66626;SDS011;53498;50.422;14.912;2022-11-23T06:21:34;38.45;;;21.33;;
66626;SDS011;53498;50.422;14.912;2022-11-23T06:24:00;38.67;;;20.88;;
66626;SDS011;53498;50.422;14.912;2022-11-23T06:26:26;33.33;;;20.83;;
66626;SDS011;53498;50.422;14.912;2022-11-23T06:28:51;41.10;;;22.50;;
66626;SDS011;53498;50.422;14.912;2022-11-23T06:31:17;36.35;;;20.30;;
66626;SDS011;53498;50.422;14.912;2022-11-23T06:33:43;38.28;;;21.60;;
66626;SDS011;53498;50.422;14.912;2022-11-23T06:36:09;34.78;;;20.40;;
66626;SDS011;53498;50.422;14.912;2022-11-23T06:38:35;38.88;;;21.00;;
66626;SDS011;53498;50.422;14.912;2022-11-23T06:41:01;33.55;;;20.08;;
66626;SDS011;53498;50.422;14.912;2022-11-23T06:43:31;40.15;;;20.77;;
66626;SDS011;53498;50.422;14.912;2022-11-23T06:45:56;36.92;;;22.73;;
66626;SDS011;53498;50.422;14.912;2022-11-23T06:48:22;38.70;;;21.27;;
66626;SDS011;53498;50.422;14.912;2022-11-23T06:50:48;31.38;;;19.10;;
66626;SDS011;53498;50.422;14.912;2022-11-23T06:53:13;31.33;;;18.42;;
66626;SDS011;53498;50.422;14.912;2022-11-23T06:55:39;32.25;;;19.00;;
66626;SDS011;53498;50.422;14.912;2022-11-23T06:58:05;28.70;;;18.17;;
66626;SDS011;53498;50.422;14.912;2022-11-23T07:00:31;34.35;;;18.15;;
66626;SDS011;53498;50.422;14.912;2022-11-23T07:02:57;34.70;;;19.17;;
66626;SDS011;53498;50.422;14.912;2022-11-23T07:05:25;37.28;;;19.83;;
66626;SDS011;53498;50.422;14.912;2022-11-23T07:07:51;27.67;;;17.50;;
66626;SDS011;53498;50.422;14.912;2022-11-23T07:10:18;33.17;;;18.15;;
66626;SDS011;53498;50.422;14.912;2022-11-23T07:12:44;31.42;;;17.65;;
66626;SDS011;53498;50.422;14.912;2022-11-23T07:15:10;34.35;;;17.77;;
66626;SDS011;53498;50.422;14.912;2022-11-23T07:17:39;33.42;;;18.40;;
66626;SDS011;53498;50.422;14.912;2022-11-23T07:20:09;31.10;;;16.73;;
66626;SDS011;53498;50.422;14.912;2022-11-23T07:22:35;32.42;;;19.45;;
66626;SDS011;53498;50.422;14.912;2022-11-23T07:25:02;34.40;;;18.73;;
66626;SDS011;53498;50.422;14.912;2022-11-23T07:27:29;38.22;;;18.77;;
66626;SDS011;53498;50.422;14.912;2022-11-23T07:29:55;33.47;;;17.70;;
66626;SDS011;53498;50.422;14.912;2022-11-23T07:32:20;32.90;;;17.98;;
66626;SDS011;53498;50.422;14.912;2022-11-23T07:34:46;38.10;;;21.15;;
66626;SDS011;53498;50.422;14.912;2022-11-23T07:37:12;37.40;;;19.92;;
66626;SDS011;53498;50.422;14.912;2022-11-23T07:39:37;33.00;;;19.88;;
66626;SDS011;53498;50.422;14.912;2022-11-23T07:42:03;43.28;;;22.02;;
66626;SDS011;53498;50.422;14.912;2022-11-23T07:44:29;32.83;;;19.25;;
66626;SDS011;53498;50.422;14.912;2022-11-23T07:46:54;33.17;;;20.73;;
66626;SDS011;53498;50.422;14.912;2022-11-23T07:49:20;32.35;;;20.38;;
66626;SDS011;53498;50.422;14.912;2022-11-23T07:51:45;30.48;;;18.73;;
66626;SDS011;53498;50.422;14.912;2022-11-23T07:54:11;31.40;;;18.38;;
66626;SDS011;53498;50.422;14.912;2022-11-23T07:56:36;32.25;;;17.02;;
66626;SDS011;53498;50.422;14.912;2022-11-23T07:59:02;32.63;;;17.65;;
66626;SDS011;53498;50.422;14.912;2022-11-23T08:01:31;34.50;;;17.95;;
66626;SDS011;53498;50.422;14.912;2022-11-23T08:03:57;39.63;;;19.05;;
66626;SDS011;53498;50.422;14.912;2022-11-23T08:06:22;30.23;;;18.67;;
66626;SDS011;53498;50.422;14.912;2022-11-23T08:08:48;32.08;;;17.98;;
66626;SDS011;53498;50.422;14.912;2022-11-23T08:11:14;39.08;;;19.20;;
66626;SDS011;53498;50.422;14.912;2022-11-23T08:13:43;38.90;;;21.30;;
66626;SDS011;53498;50.422;14.912;2022-11-23T08:16:09;42.05;;;22.48;;
66626;SDS011;53498;50.422;14.912;2022-11-23T08:18:35;40.88;;;22.52;;
66626;SDS011;53498;50.422;14.912;2022-11-23T08:21:01;39.80;;;22.98;;
66626;SDS011;53498;50.422;14.912;2022-11-23T08:23:27;40.65;;;22.80;;
66626;SDS011;53498;50.422;14.912;2022-11-23T08:25:52;46.65;;;24.50;;
66626;SDS011;53498;50.422;14.912;2022-11-23T08:28:18;41.20;;;22.95;;
66626;SDS011;53498;50.422;14.912;2022-11-23T08:30:44;34.60;;;21.02;;
66626;SDS011;53498;50.422;14.912;2022-11-23T08:33:10;39.50;;;20.35;;
66626;SDS011;53498;50.422;14.912;2022-11-23T08:35:37;38.22;;;22.70;;
66626;SDS011;53498;50.422;14.912;2022-11-23T08:38:05;32.65;;;18.73;;
66626;SDS011;53498;50.422;14.912;2022-11-23T08:40:32;46.22;;;22.10;;
66626;SDS011;53498;50.422;14.912;2022-11-23T08:42:59;36.38;;;20.30;;
66626;SDS011;53498;50.422;14.912;2022-11-23T08:45:24;39.47;;;21.60;;
66626;SDS011;53498;50.422;14.912;2022-11-23T08:47:50;35.42;;;19.63;;
66626;SDS011;53498;50.422;14.912;2022-11-23T08:50:17;33.53;;;18.90;;
66626;SDS011;53498;50.422;14.912;2022-11-23T08:52:43;34.35;;;20.02;;
66626;SDS011;53498;50.422;14.912;2022-11-23T08:55:08;33.13;;;17.90;;
66626;SDS011;53498;50.422;14.912;2022-11-23T08:57:34;34.00;;;18.73;;
66626;SDS011;53498;50.422;14.912;2022-11-23T09:00:00;39.00;;;20.65;;
66626;SDS011;53498;50.422;14.912;2022-11-23T09:02:25;37.92;;;18.83;;
66626;SDS011;53498;50.422;14.912;2022-11-23T09:04:51;33.60;;;17.92;;
66626;SDS011;53498;50.422;14.912;2022-11-23T09:07:17;31.92;;;18.80;;
66626;SDS011;53498;50.422;14.912;2022-11-23T09:09:42;39.00;;;21.15;;
66626;SDS011;53498;50.422;14.912;2022-11-23T09:12:08;36.33;;;21.70;;
66626;SDS011;53498;50.422;14.912;2022-11-23T09:14:34;38.92;;;24.17;;
66626;SDS011;53498;50.422;14.912;2022-11-23T09:17:00;42.22;;;22.92;;
66626;SDS011;53498;50.422;14.912;2022-11-23T09:19:26;41.35;;;24.58;;
66626;SDS011;53498;50.422;14.912;2022-11-23T09:21:52;40.80;;;23.35;;
66626;SDS011;53498;50.422;14.912;2022-11-23T09:24:18;41.20;;;25.15;;
66626;SDS011;53498;50.422;14.912;2022-11-23T09:26:44;36.35;;;23.17;;
66626;SDS011;53498;50.422;14.912;2022-11-23T09:29:09;43.85;;;23.27;;
66626;SDS011;53498;50.422;14.912;2022-11-23T09:31:35;47.25;;;25.77;;
66626;SDS011;53498;50.422;14.912;2022-11-23T09:34:01;38.17;;;23.50;;
66626;SDS011;53498;50.422;14.912;2022-11-23T09:36:28;37.70;;;23.58;;
66626;SDS011;53498;50.422;14.912;2022-11-23T09:38:54;38.30;;;22.73;;
66626;SDS011;53498;50.422;14.912;2022-11-23T09:44:12;40.03;;;22.75;;
66626;SDS011;53498;50.422;14.912;2022-11-23T09:52:25;42.80;;;23.60;;
66626;SDS011;53498;50.422;14.912;2022-11-23T09:54:52;42.92;;;22.98;;
66626;SDS011;53498;50.422;14.912;2022-11-23T09:57:22;37.58;;;22.65;;
66626;SDS011;53498;50.422;14.912;2022-11-23T10:00:06;46.08;;;22.60;;
66626;SDS011;53498;50.422;14.912;2022-11-23T10:02:40;37.38;;;21.20;;
66626;SDS011;53498;50.422;14.912;2022-11-23T10:05:05;43.85;;;23.15;;
66626;SDS011;53498;50.422;14.912;2022-11-23T10:07:38;40.03;;;23.60;;
66626;SDS011;53498;50.422;14.912;2022-11-23T10:24:52;40.28;;;24.17;;
66626;SDS011;53498;50.422;14.912;2022-11-23T10:27:22;41.90;;;23.63;;
66626;SDS011;53498;50.422;14.912;2022-11-23T10:29:49;42.10;;;21.92;;
66626;SDS011;53498;50.422;14.912;2022-11-23T10:35:11;44.75;;;23.60;;
66626;SDS011;53498;50.422;14.912;2022-11-23T10:37:42;41.65;;;23.15;;
66626;SDS011;53498;50.422;14.912;2022-11-23T10:42:52;41.60;;;22.25;;
66626;SDS011;53498;50.422;14.912;2022-11-23T10:45:23;39.00;;;20.27;;
66626;SDS011;53498;50.422;14.912;2022-11-23T10:47:55;41.00;;;21.75;;
66626;SDS011;53498;50.422;14.912;2022-11-23T10:55:33;37.55;;;20.25;;
66626;SDS011;53498;50.422;14.912;2022-11-23T10:58:30;40.67;;;21.70;;
66626;SDS011;53498;50.422;14.912;2022-11-23T11:01:18;40.25;;;21.13;;
66626;SDS011;53498;50.422;14.912;2022-11-23T11:03:47;42.03;;;22.50;;
66626;SDS011;53498;50.422;14.912;2022-11-23T11:06:32;37.47;;;21.83;;
66626;SDS011;53498;50.422;14.912;2022-11-23T11:09:01;42.65;;;21.02;;
66626;SDS011;53498;50.422;14.912;2022-11-23T11:11:34;41.47;;;22.08;;
66626;SDS011;53498;50.422;14.912;2022-11-23T11:14:04;39.28;;;21.60;;
66626;SDS011;53498;50.422;14.912;2022-11-23T11:16:50;37.08;;;20.13;;
66626;SDS011;53498;50.422;14.912;2022-11-23T11:19:34;38.42;;;19.58;;
66626;SDS011;53498;50.422;14.912;2022-11-23T11:22:01;38.08;;;21.67;;
66626;SDS011;53498;50.422;14.912;2022-11-23T11:24:48;38.58;;;19.50;;
66626;SDS011;53498;50.422;14.912;2022-11-23T11:27:15;36.70;;;21.73;;
66626;SDS011;53498;50.422;14.912;2022-11-23T11:34:45;40.00;;;18.45;;
66626;SDS011;53498;50.422;14.912;2022-11-23T11:42:57;39.20;;;20.50;;
66626;SDS011;53498;50.422;14.912;2022-11-23T11:45:25;37.50;;;19.83;;
66626;SDS011;53498;50.422;14.912;2022-11-23T11:48:06;36.25;;;18.65;;
66626;SDS011;53498;50.422;14.912;2022-11-23T11:50:38;32.53;;;16.88;;
66626;SDS011;53498;50.422;14.912;2022-11-23T11:53:21;32.70;;;17.20;;
66626;SDS011;53498;50.422;14.912;2022-11-23T11:58:23;30.33;;;18.50;;
66626;SDS011;53498;50.422;14.912;2022-11-23T12:00:52;32.83;;;17.30;;
66626;SDS011;53498;50.422;14.912;2022-11-23T12:03:46;34.90;;;18.65;;
66626;SDS011;53498;50.422;14.912;2022-11-23T12:06:42;33.55;;;17.58;;
66626;SDS011;53498;50.422;14.912;2022-11-23T12:09:12;31.52;;;16.67;;
66626;SDS011;53498;50.422;14.912;2022-11-23T12:11:43;30.95;;;17.30;;
66626;SDS011;53498;50.422;14.912;2022-11-23T12:14:10;31.17;;;15.35;;
66626;SDS011;53498;50.422;14.912;2022-11-23T12:30:54;25.00;;;13.82;;
66626;SDS011;53498;50.422;14.912;2022-11-23T12:33:30;28.98;;;13.73;;
66626;SDS011;53498;50.422;14.912;2022-11-23T12:38:53;29.88;;;15.25;;
66626;SDS011;53498;50.422;14.912;2022-11-23T12:43:52;34.35;;;17.55;;
66626;SDS011;53498;50.422;14.912;2022-11-23T12:55:05;40.65;;;20.35;;
66626;SDS011;53498;50.422;14.912;2022-11-23T12:57:48;38.20;;;19.15;;
66626;SDS011;53498;50.422;14.912;2022-11-23T13:00:22;41.83;;;21.70;;
66626;SDS011;53498;50.422;14.912;2022-11-23T13:08:04;38.00;;;18.58;;
66626;SDS011;53498;50.422;14.912;2022-11-23T13:10:53;36.28;;;17.95;;
66626;SDS011;53498;50.422;14.912;2022-11-23T13:13:53;37.88;;;18.15;;
66626;SDS011;53498;50.422;14.912;2022-11-23T13:19:28;38.00;;;18.63;;
66626;SDS011;53498;50.422;14.912;2022-11-23T13:21:57;40.55;;;19.98;;
66626;SDS011;53498;50.422;14.912;2022-11-23T13:24:28;34.70;;;16.95;;
66626;SDS011;53498;50.422;14.912;2022-11-23T13:29:55;30.42;;;15.80;;
66626;SDS011;53498;50.422;14.912;2022-11-23T13:35:50;33.22;;;16.23;;
66626;SDS011;53498;50.422;14.912;2022-11-23T13:40:42;32.92;;;16.65;;
66626;SDS011;53498;50.422;14.912;2022-11-23T13:43:14;32.60;;;16.58;;
66626;SDS011;53498;50.422;14.912;2022-11-23T13:45:41;31.15;;;15.80;;
66626;SDS011;53498;50.422;14.912;2022-11-23T13:48:12;33.65;;;15.57;;
66626;SDS011;53498;50.422;14.912;2022-11-23T13:53:23;31.45;;;16.15;;
66626;SDS011;53498;50.422;14.912;2022-11-23T14:04:35;30.40;;;15.63;;
66626;SDS011;53498;50.422;14.912;2022-11-23T14:07:22;29.77;;;14.25;;
66626;SDS011;53498;50.422;14.912;2022-11-23T14:09:51;33.70;;;15.40;;
66626;SDS011;53498;50.422;14.912;2022-11-23T14:29:15;35.40;;;16.25;;
66626;SDS011;53498;50.422;14.912;2022-11-23T14:43:02;30.35;;;15.57;;
66626;SDS011;53498;50.422;14.912;2022-11-23T14:45:30;32.75;;;16.13;;
66626;SDS011;53498;50.422;14.912;2022-11-23T14:48:18;33.75;;;15.70;;
66626;SDS011;53498;50.422;14.912;2022-11-23T14:51:18;36.90;;;17.00;;
66626;SDS011;53498;50.422;14.912;2022-11-23T14:53:47;36.20;;;17.05;;
66626;SDS011;53498;50.422;14.912;2022-11-23T14:59:09;43.28;;;17.35;;
66626;SDS011;53498;50.422;14.912;2022-11-23T15:01:52;35.00;;;17.05;;
66626;SDS011;53498;50.422;14.912;2022-11-23T15:04:28;34.40;;;17.05;;
66626;SDS011;53498;50.422;14.912;2022-11-23T15:07:07;36.65;;;17.08;;
66626;SDS011;53498;50.422;14.912;2022-11-23T15:12:25;35.60;;;17.50;;
66626;SDS011;53498;50.422;14.912;2022-11-23T15:15:24;34.97;;;17.15;;
66626;SDS011;53498;50.422;14.912;2022-11-23T15:17:52;33.97;;;16.42;;
66626;SDS011;53498;50.422;14.912;2022-11-23T15:20:19;35.40;;;17.65;;
66626;SDS011;53498;50.422;14.912;2022-11-23T15:22:47;36.33;;;17.30;;
66626;SDS011;53498;50.422;14.912;2022-11-23T15:25:16;38.08;;;18.38;;
66626;SDS011;53498;50.422;14.912;2022-11-23T15:27:44;38.65;;;19.70;;
66626;SDS011;53498;50.422;14.912;2022-11-23T15:30:20;39.33;;;16.65;;
66626;SDS011;53498;50.422;14.912;2022-11-23T15:33:01;36.10;;;18.55;;
66626;SDS011;53498;50.422;14.912;2022-11-23T15:35:34;33.50;;;17.50;;
66626;SDS011;53498;50.422;14.912;2022-11-23T15:38:03;34.00;;;17.05;;
66626;SDS011;53498;50.422;14.912;2022-11-23T15:40:34;24.95;;;14.57;;
66626;SDS011;53498;50.422;14.912;2022-11-23T15:43:01;31.55;;;16.23;;
66626;SDS011;53498;50.422;14.912;2022-11-23T15:48:12;34.97;;;16.90;;
66626;SDS011;53498;50.422;14.912;2022-11-23T15:53:20;36.75;;;17.58;;
66626;SDS011;53498;50.422;14.912;2022-11-23T15:55:50;35.55;;;16.88;;
66626;SDS011;53498;50.422;14.912;2022-11-23T15:58:16;36.08;;;17.27;;
66626;SDS011;53498;50.422;14.912;2022-11-23T16:00:48;39.30;;;16.25;;
66626;SDS011;53498;50.422;14.912;2022-11-23T16:03:59;33.38;;;14.90;;
66626;SDS011;53498;50.422;14.912;2022-11-23T16:06:16;28.15;;;14.00;;
66626;SDS011;53498;50.422;14.912;2022-11-23T16:08:43;35.45;;;16.95;;
66626;SDS011;53498;50.422;14.912;2022-11-23T16:14:19;30.63;;;16.58;;
66626;SDS011;53498;50.422;14.912;2022-11-23T16:17:03;33.20;;;15.95;;
66626;SDS011;53498;50.422;14.912;2022-11-23T16:19:49;29.67;;;15.80;;
66626;SDS011;53498;50.422;14.912;2022-11-23T16:22:30;33.35;;;15.27;;
66626;SDS011;53498;50.422;14.912;2022-11-23T16:25:23;33.80;;;15.65;;
66626;SDS011;53498;50.422;14.912;2022-11-23T16:30:41;35.42;;;17.35;;
66626;SDS011;53498;50.422;14.912;2022-11-23T16:33:12;37.67;;;16.13;;
66626;SDS011;53498;50.422;14.912;2022-11-23T16:35:39;34.80;;;16.92;;
66626;SDS011;53498;50.422;14.912;2022-11-23T16:38:05;34.55;;;16.98;;
66626;SDS011;53498;50.422;14.912;2022-11-23T16:40:31;32.80;;;15.45;;
66626;SDS011;53498;50.422;14.912;2022-11-23T16:42:58;35.35;;;17.05;;
66626;SDS011;53498;50.422;14.912;2022-11-23T16:45:24;38.92;;;17.92;;
66626;SDS011;53498;50.422;14.912;2022-11-23T16:47:52;36.33;;;17.65;;
66626;SDS011;53498;50.422;14.912;2022-11-23T16:50:29;30.15;;;16.10;;
66626;SDS011;53498;50.422;14.912;2022-11-23T16:53:10;35.55;;;17.27;;